Time;durP1;ratioP1;P1;durP2;ratioP2;P2;SDS_P1;SDS_P2;PMS_P1;PMS_P2;Temp;Humidity;BMP_temperature;BMP_pressure;BME280_temperature;BME280_humidity;BME280_pressure;Samples;Min_cycle;Max_cycle;Signal;HPM_P1;HPM_P2
2023/05/23 00:01:23;;;;;;;0.68;0.40;;;;;;;15.50;100.00;100928.81;7394934;19;20015;-57
2023/05/23 00:03:52;;;;;;;0.55;0.55;;;;;;;15.45;100.00;100934.31;7395789;19;20006;-57
2023/05/23 00:06:22;;;;;;;0.40;0.40;;;;;;;15.56;100.00;100929.69;7396063;19;20014;-58
2023/05/23 00:08:49;;;;;;;7.78;0.70;;;;;;;15.60;100.00;100932.28;7396790;19;20070;-57
2023/05/23 00:11:15;;;;;;;1.38;0.50;;;;;;;15.69;100.00;100926.56;7395040;19;20017;-57
2023/05/23 00:13:41;;;;;;;0.60;0.32;;;;;;;15.20;100.00;100921.59;7397676;19;20030;-57
2023/05/23 00:16:08;;;;;;;0.82;0.75;;;;;;;15.22;100.00;100926.72;7394551;19;20035;-58
2023/05/23 00:18:35;;;;;;;2.22;0.52;;;;;;;15.87;100.00;100924.31;7393560;19;20028;-57
2023/05/23 00:21:02;;;;;;;1.30;0.80;;;;;;;15.76;100.00;100929.00;7393731;19;20007;-57
2023/05/23 00:23:28;;;;;;;2.75;0.82;;;;;;;16.17;100.00;100922.25;7394940;19;20006;-57
2023/05/23 00:25:55;;;;;;;0.63;0.43;;;;;;;16.17;100.00;100918.66;7394841;19;20367;-57
2023/05/23 00:28:21;;;;;;;0.75;0.40;;;;;;;16.24;100.00;100918.25;7395040;19;20026;-57
2023/05/23 00:30:50;;;;;;;0.40;0.40;;;;;;;16.16;100.00;100925.53;7394613;19;20028;-58
2023/05/23 00:33:20;;;;;;;1.50;0.50;;;;;;;16.11;100.00;100924.22;7394443;19;20367;-57
2023/05/23 00:35:50;;;;;;;12.65;0.93;;;;;;;16.09;100.00;100928.75;7393320;19;20010;-57
2023/05/23 00:38:16;;;;;;;1.23;0.50;;;;;;;16.08;100.00;100922.38;7393153;19;20018;-57
2023/05/23 00:40:42;;;;;;;1.20;0.38;;;;;;;16.24;100.00;100927.44;7391718;19;20022;-57
2023/05/23 00:43:08;;;;;;;0.30;0.30;;;;;;;16.42;100.00;100932.06;7392268;19;20011;-57
2023/05/23 00:45:35;;;;;;;3.13;0.50;;;;;;;16.59;100.00;100930.28;7393720;19;20011;-58
2023/05/23 00:48:02;;;;;;;0.45;0.45;;;;;;;16.57;100.00;100930.78;7394532;19;20017;-57
2023/05/23 00:50:28;;;;;;;0.60;0.47;;;;;;;16.57;100.00;100930.78;7398081;19;20014;-57
2023/05/23 00:52:57;;;;;;;0.73;0.73;;;;;;;16.58;100.00;100932.34;7394153;19;20015;-58
2023/05/23 00:55:24;;;;;;;3.08;0.40;;;;;;;16.59;100.00;100939.50;7392534;19;20015;-58
2023/05/23 00:57:54;;;;;;;0.95;0.43;;;;;;;15.89;100.00;100943.53;7393817;19;20042;-57
2023/05/23 01:00:21;;;;;;;2.30;0.30;;;;;;;16.07;100.00;100937.66;7396575;19;20010;-57
2023/05/23 01:02:52;;;;;;;5.03;0.55;;;;;;;16.30;100.00;100941.59;7389752;19;20018;-57
2023/05/23 01:05:21;;;;;;;1.05;0.70;;;;;;;16.25;100.00;100942.28;7393476;19;20332;-57
2023/05/23 01:07:48;;;;;;;0.70;0.70;;;;;;;16.33;100.00;100946.25;7392792;19;20359;-57
2023/05/23 01:10:17;;;;;;;1.42;0.85;;;;;;;16.27;100.00;100945.38;7395990;19;20023;-58
2023/05/23 01:13:06;;;;;;;1.00;0.77;;;;;;;16.26;100.00;100950.25;7394980;19;20463;-57
2023/05/23 01:15:41;;;;;;;1.95;0.30;;;;;;;16.19;100.00;100956.25;7392634;19;20354;-58
2023/05/23 01:18:11;;;;;;;2.20;0.45;;;;;;;16.18;100.00;100946.28;7391263;19;20392;-58
2023/05/23 01:20:44;;;;;;;0.93;0.30;;;;;;;16.14;100.00;100948.50;7392992;19;20015;-58
2023/05/23 01:23:31;;;;;;;1.38;0.75;;;;;;;16.06;100.00;100943.78;7392985;19;20025;-57
2023/05/23 01:26:26;;;;;;;0.45;0.32;;;;;;;16.03;100.00;100945.53;7393389;19;20066;-57
2023/05/23 01:29:04;;;;;;;0.30;0.20;;;;;;;16.01;100.00;100950.06;7390735;19;20031;-57
2023/05/23 01:31:34;;;;;;;6.43;0.77;;;;;;;16.14;100.00;100950.53;7391603;19;20027;-58
2023/05/23 01:34:01;;;;;;;1.05;0.73;;;;;;;15.83;100.00;100953.91;7394622;19;20355;-57
2023/05/23 01:36:28;;;;;;;1.65;0.50;;;;;;;15.72;100.00;100951.66;7400934;19;20050;-57
2023/05/23 01:38:54;;;;;;;0.40;0.40;;;;;;;15.67;100.00;100954.38;7400437;19;20021;-58
2023/05/23 01:41:20;;;;;;;4.40;0.65;;;;;;;21.45;97.95;100950.44;7400885;19;20018;-57
2023/05/23 01:43:46;;;;;;;6.93;0.60;;;;;;;16.58;100.00;100952.03;7404198;19;20040;-57
2023/05/23 01:46:14;;;;;;;0.17;0.10;;;;;;;16.17;100.00;100946.75;7398738;19;20022;-58
2023/05/23 01:48:41;;;;;;;0.88;0.60;;;;;;;23.70;96.98;100950.66;7401451;19;20431;-57
2023/05/23 01:51:07;;;;;;;0.95;0.60;;;;;;;21.80;85.98;100938.34;7399680;19;20015;-57
2023/05/23 01:53:35;;;;;;;5.88;1.02;;;;;;;17.81;100.00;100957.78;7399782;19;20014;-57
2023/05/23 01:56:02;;;;;;;0.93;0.70;;;;;;;20.22;99.30;100948.56;7397947;19;20006;-57
2023/05/23 01:58:29;;;;;;;0.30;0.30;;;;;;;16.19;100.00;100956.25;7398749;19;20011;-57
2023/05/23 02:00:56;;;;;;;0.40;0.40;;;;;;;15.48;100.00;100947.41;7398176;19;20014;-57
2023/05/23 02:03:22;;;;;;;0.30;0.30;;;;;;;15.31;100.00;100952.66;7398334;19;20107;-57
2023/05/23 02:05:49;;;;;;;1.27;0.38;;;;;;;15.32;100.00;100950.63;7398733;19;20014;-57
2023/05/23 02:08:16;;;;;;;1.02;0.38;;;;;;;15.28;100.00;100958.47;7398001;19;20426;-57
2023/05/23 02:10:42;;;;;;;2.97;0.57;;;;;;;15.19;100.00;100965.72;7399228;19;20042;-57
2023/05/23 02:13:08;;;;;;;14.07;1.00;;;;;;;15.41;100.00;100958.97;7401710;19;20015;-57
2023/05/23 02:15:34;;;;;;;0.68;0.55;;;;;;;15.32;100.00;100961.84;7398045;19;20070;-57
2023/05/23 02:18:01;;;;;;;0.77;0.45;;;;;;;17.25;100.00;100962.06;7395942;19;20014;-57
2023/05/23 02:20:28;;;;;;;0.98;0.52;;;;;;;17.81;100.00;100963.44;7403363;19;20010;-57
2023/05/23 02:22:54;;;;;;;3.63;0.52;;;;;;;16.07;100.00;100971.38;7398407;19;20361;-57
2023/05/23 02:25:20;;;;;;;0.30;0.15;;;;;;;15.74;100.00;100970.84;7396621;19;20066;-57
2023/05/23 02:27:46;;;;;;;0.32;0.20;;;;;;;15.62;100.00;100971.88;7397157;19;20014;-57
2023/05/23 02:30:13;;;;;;;0.30;0.30;;;;;;;16.02;100.00;100968.50;7401645;19;20015;-57
2023/05/23 02:32:39;;;;;;;0.47;0.43;;;;;;;16.06;100.00;100957.81;7397405;19;20018;-57
2023/05/23 02:35:06;;;;;;;0.98;0.50;;;;;;;15.42;100.00;100971.75;7396694;19;20460;-57
2023/05/23 02:37:32;;;;;;;10.05;1.25;;;;;;;14.39;100.00;100981.81;7397738;19;20052;-57
2023/05/23 02:39:58;;;;;;;1.25;0.43;;;;;;;15.46;100.00;100966.75;7400524;19;20037;-57
2023/05/23 02:42:24;;;;;;;3.05;0.43;;;;;;;17.51;100.00;100967.75;7399593;19;20090;-58
2023/05/23 02:44:50;;;;;;;1.42;0.40;;;;;;;16.46;100.00;100964.31;7395662;19;20014;-57
2023/05/23 02:47:17;;;;;;;0.25;0.25;;;;;;;15.52;100.00;100965.59;7396920;19;20033;-58
2023/05/23 02:49:43;;;;;;;5.25;0.65;;;;;;;19.67;100.00;100961.38;7402127;19;20017;-57
2023/05/23 02:52:10;;;;;;;0.73;0.73;;;;;;;16.17;100.00;100964.41;7395932;19;20014;-58
2023/05/23 02:54:37;;;;;;;2.17;1.05;;;;;;;15.38;100.00;100971.16;7395831;19;20011;-57
2023/05/23 02:57:03;;;;;;;0.20;0.20;;;;;;;15.04;100.00;100981.72;7397452;19;20017;-57
2023/05/23 02:59:33;;;;;;;1.98;0.43;;;;;;;15.58;100.00;100974.91;7399046;19;20014;-58
2023/05/23 03:01:59;;;;;;;0.50;0.40;;;;;;;17.97;100.00;100965.63;7395963;19;20074;-57
2023/05/23 03:04:26;;;;;;;0.30;0.30;;;;;;;15.44;100.00;100966.47;7395440;19;20035;-57
2023/05/23 03:06:55;;;;;;;2.30;0.68;;;;;;;14.86;100.00;100964.25;7395336;19;20038;-57
2023/05/23 03:09:21;;;;;;;1.23;0.40;;;;;;;15.51;100.00;100960.44;7398203;19;20448;-57
2023/05/23 03:11:47;;;;;;;0.43;0.38;;;;;;;17.96;100.00;100957.66;7395292;19;20074;-55
2023/05/23 03:14:15;;;;;;;0.93;0.75;;;;;;;22.54;100.00;100952.88;7399741;19;20011;-56
2023/05/23 03:16:41;;;;;;;1.35;0.30;;;;;;;16.50;100.00;100964.91;7394886;19;20062;-58
2023/05/23 03:19:07;;;;;;;0.55;0.22;;;;;;;19.82;100.00;100957.50;7396665;19;20015;-58
2023/05/23 03:21:34;;;;;;;0.35;0.32;;;;;;;20.41;100.00;100960.88;7395094;19;20014;-58
2023/05/23 03:24:01;;;;;;;0.70;0.70;;;;;;;19.52;100.00;100958.00;7395953;19;20010;-58
2023/05/23 03:26:29;;;;;;;0.95;0.40;;;;;;;22.49;98.62;100956.56;7395181;19;20014;-58
2023/05/23 03:28:56;;;;;;;2.58;0.93;;;;;;;23.58;89.68;100951.38;7396358;19;20017;-56
2023/05/23 03:31:22;;;;;;;0.40;0.40;;;;;;;24.04;82.28;100960.22;7394381;19;20026;-55
2023/05/23 03:33:48;;;;;;;1.23;0.40;;;;;;;25.58;73.17;100944.19;7395204;19;20018;-56
2023/05/23 03:36:15;;;;;;;0.73;0.55;;;;;;;24.46;71.49;100954.81;7395376;19;20023;-56
2023/05/23 03:38:41;;;;;;;0.77;0.50;;;;;;;24.93;71.74;100952.13;7394883;19;20088;-56
2023/05/23 03:41:07;;;;;;;0.90;0.47;;;;;;;22.21;81.98;100963.81;7395581;19;20459;-56
2023/05/23 03:43:34;;;;;;;0.85;0.80;;;;;;;22.70;77.43;100958.97;7398651;19;20014;-56
2023/05/23 03:46:00;;;;;;;0.55;0.55;;;;;;;22.33;89.80;100957.50;7396403;19;20015;-56
2023/05/23 03:48:26;;;;;;;2.92;0.40;;;;;;;19.67;96.30;100971.91;7395531;19;20010;-55
2023/05/23 03:50:53;;;;;;;0.55;0.20;;;;;;;22.76;83.18;100963.25;7394786;19;20014;-56
2023/05/23 03:53:19;;;;;;;2.20;0.40;;;;;;;25.84;70.41;100959.66;7395994;19;20033;-56
2023/05/23 03:55:45;;;;;;;0.40;0.40;;;;;;;25.85;66.69;100961.22;7394419;19;20014;-56
2023/05/23 03:58:11;;;;;;;0.88;0.50;;;;;;;25.14;69.58;100967.22;7393358;19;20007;-56
2023/05/23 04:00:39;;;;;;;1.17;0.70;;;;;;;21.74;84.00;100971.66;7394822;19;20010;-56
2023/05/23 04:03:09;;;;;;;3.63;0.43;;;;;;;25.32;68.49;100967.06;7393902;19;20482;-56
2023/05/23 04:05:35;;;;;;;0.40;0.40;;;;;;;25.89;64.25;100970.19;7394055;19;20014;-56
2023/05/23 04:08:01;;;;;;;1.13;0.68;;;;;;;23.42;71.07;100975.13;7394167;19;20412;-59
2023/05/23 04:10:28;;;;;;;5.18;1.10;;;;;;;21.41;94.41;100971.84;7393905;19;20006;-58
2023/05/23 04:12:55;;;;;;;1.02;0.85;;;;;;;16.58;100.00;100977.31;7395552;19;20041;-58
2023/05/23 04:15:22;;;;;;;2.42;0.68;;;;;;;21.86;100.00;100959.72;7393870;19;20010;-58
2023/05/23 04:17:52;;;;;;;1.10;0.30;;;;;;;22.67;89.28;100968.53;7392695;19;20682;-58
2023/05/23 04:20:19;;;;;;;0.60;0.52;;;;;;;26.30;68.22;100968.13;7393915;19;20069;-55
2023/05/23 04:22:45;;;;;;;4.47;0.77;;;;;;;26.66;63.50;100959.63;7393379;19;20036;-58
2023/05/23 04:25:12;;;;;;;1.08;0.65;;;;;;;26.80;62.23;100955.38;7395207;19;20024;-58
2023/05/23 04:27:46;;;;;;;1.00;0.20;;;;;;;25.74;68.43;100961.47;7393806;19;20359;-58
2023/05/23 04:30:12;;;;;;;1.13;0.50;;;;;;;20.30;98.01;100972.97;7392350;19;20033;-55
2023/05/23 04:32:42;;;;;;;0.93;0.60;;;;;;;23.40;84.35;100972.81;7394682;19;20018;-56
2023/05/23 04:35:09;;;;;;;0.70;0.40;;;;;;;21.05;97.60;100985.94;7392146;19;20020;-56
2023/05/23 04:37:39;;;;;;;1.80;0.63;;;;;;;17.41;100.00;100998.06;7394086;19;20018;-56
2023/05/23 04:40:06;;;;;;;2.05;0.70;;;;;;;22.84;88.18;100981.25;7392897;19;20547;-56
2023/05/23 04:43:01;;;;;;;0.63;0.28;;;;;;;18.13;100.00;100987.53;7394571;19;20019;-56
2023/05/23 04:45:48;;;;;;;4.32;0.90;;;;;;;22.25;100.00;100987.00;7392428;19;20007;-56
2023/05/23 04:48:41;;;;;;;3.30;0.45;;;;;;;26.49;71.54;100973.59;7395637;19;20011;-56
2023/05/23 04:51:07;;;;;;;1.33;0.90;;;;;;;26.24;65.81;100976.09;7397391;19;20506;-58
2023/05/23 04:53:37;;;;;;;6.35;0.82;;;;;;;27.82;60.51;100969.72;7392559;19;20007;-56
2023/05/23 04:56:03;;;;;;;1.63;0.50;;;;;;;25.22;61.49;100979.50;7391871;19;20014;-57
2023/05/23 04:58:30;;;;;;;2.45;0.73;;;;;;;20.39;99.27;100983.25;7391414;19;20014;-56
2023/05/23 05:01:01;;;;;;;1.58;0.30;;;;;;;16.65;100.00;100998.66;7394352;19;20651;-56
2023/05/23 05:03:27;;;;;;;2.03;0.70;;;;;;;18.05;100.00;100989.25;7392007;19;20402;-56
2023/05/23 05:05:54;;;;;;;0.32;0.20;;;;;;;16.89;100.00;100995.66;7392130;19;20062;-56
2023/05/23 05:08:20;;;;;;;2.05;0.63;;;;;;;19.70;100.00;100992.72;7393748;19;20025;-58
2023/05/23 05:10:46;;;;;;;0.77;0.32;;;;;;;25.50;78.44;100979.69;7402150;19;20011;-56
2023/05/23 05:13:13;;;;;;;2.35;1.33;;;;;;;26.57;69.81;100985.88;7402110;19;20015;-56
2023/05/23 05:15:44;;;;;;;1.55;0.57;;;;;;;25.94;66.90;100984.34;7399567;19;20019;-57
2023/05/23 05:18:12;;;;;;;4.50;0.68;;;;;;;26.73;69.76;100996.09;7397963;19;20066;-57
2023/05/23 05:20:39;;;;;;;1.10;0.52;;;;;;;28.23;61.10;100995.19;7400684;19;20340;-56
2023/05/23 05:23:07;;;;;;;0.90;0.57;;;;;;;28.67;58.82;100998.66;7400923;19;20007;-56
2023/05/23 05:25:35;;;;;;;0.93;0.50;;;;;;;29.17;55.29;100996.84;7399399;19;20014;-58
2023/05/23 05:28:04;;;;;;;0.50;0.50;;;;;;;29.27;54.41;100994.88;7399396;19;20015;-56
2023/05/23 05:30:36;;;;;;;3.28;0.30;;;;;;;29.41;53.41;100992.53;7400141;19;20032;-56
2023/05/23 05:33:03;;;;;;;2.45;0.60;;;;;;;30.25;50.83;100985.72;7399458;19;20019;-56
2023/05/23 05:35:34;;;;;;;2.58;1.75;;;;;;;30.55;49.75;100984.72;7399388;19;20516;-56
2023/05/23 05:38:04;;;;;;;6.13;1.13;;;;;;;18.32;100.00;101001.25;7397810;19;20351;-56
2023/05/23 05:40:33;;;;;;;1.65;1.25;;;;;;;24.10;95.47;100989.34;7399216;19;20014;-56
2023/05/23 05:43:00;;;;;;;3.55;0.85;;;;;;;29.54;59.59;100978.66;7401042;19;20007;-56
2023/05/23 05:45:27;;;;;;;3.30;0.98;;;;;;;30.47;53.46;100969.66;7399325;19;20022;-56
2023/05/23 05:47:53;;;;;;;0.70;0.70;;;;;;;30.65;51.44;100974.81;7399960;19;20016;-57
2023/05/23 05:50:22;;;;;;;6.50;1.10;;;;;;;30.79;50.79;100965.88;7398734;19;20018;-57
2023/05/23 05:52:48;;;;;;;2.15;1.05;;;;;;;30.84;49.47;100962.72;7398985;19;20022;-57
2023/05/23 05:55:14;;;;;;;1.55;0.65;;;;;;;31.28;47.84;100963.59;7398521;19;20011;-57
2023/05/23 05:57:45;;;;;;;0.75;0.60;;;;;;;30.77;47.66;100977.22;7397364;19;20007;-57
2023/05/23 06:00:17;;;;;;;4.25;1.10;;;;;;;30.80;47.35;100979.66;7397993;19;20010;-57
2023/05/23 06:02:53;;;;;;;1.40;0.28;;;;;;;31.46;45.84;100975.09;7398189;19;20018;-57
2023/05/23 06:05:30;;;;;;;6.57;0.63;;;;;;;31.35;45.65;100968.50;7399455;19;20014;-56
2023/05/23 06:07:56;;;;;;;6.55;1.42;;;;;;;29.45;47.86;100967.84;7397683;19;20011;-57
2023/05/23 06:10:23;;;;;;;2.38;0.98;;;;;;;31.02;46.34;100970.03;7399564;19;20384;-57
2023/05/23 06:12:50;;;;;;;1.60;1.50;;;;;;;31.63;44.27;100969.28;7400139;19;20032;-57
2023/05/23 06:15:16;;;;;;;0.75;0.63;;;;;;;31.93;43.73;100965.97;7399173;19;20018;-57
2023/05/23 06:17:43;;;;;;;3.75;1.13;;;;;;;32.18;43.11;100969.44;7398859;19;20011;-57
2023/05/23 06:20:11;;;;;;;5.25;0.68;;;;;;;31.43;44.54;100969.19;7397057;19;20340;-57
2023/05/23 06:22:40;;;;;;;0.70;0.70;;;;;;;29.19;47.64;100979.81;7397443;19;20019;-57
2023/05/23 06:25:06;;;;;;;2.92;0.45;;;;;;;29.62;48.49;100979.41;7397042;19;20474;-56
2023/05/23 06:27:33;;;;;;;10.77;1.30;;;;;;;28.98;48.81;100979.25;7397758;19;20010;-56
2023/05/23 06:29:59;;;;;;;3.50;1.55;;;;;;;30.37;47.69;100975.28;7401060;19;20030;-56
2023/05/23 06:32:25;;;;;;;0.30;0.17;;;;;;;24.91;59.47;100983.22;7397393;19;20014;-56
2023/05/23 06:34:51;;;;;;;3.90;1.30;;;;;;;29.88;49.35;100970.28;7396690;19;20031;-57
2023/05/23 06:37:17;;;;;;;6.07;1.50;;;;;;;28.61;50.04;100975.13;7398572;19;20006;-57
2023/05/23 06:39:43;;;;;;;2.17;0.47;;;;;;;29.43;49.71;100984.88;7397519;19;20015;-58
2023/05/23 06:42:09;;;;;;;2.65;0.90;;;;;;;29.56;50.28;100981.72;7397308;19;20015;-57
2023/05/23 06:44:53;;;;;;;0.40;0.35;;;;;;;27.08;58.86;100988.09;7397078;19;20007;-56
2023/05/23 06:47:19;;;;;;;2.63;0.77;;;;;;;24.14;60.86;100991.13;7396839;19;20037;-58
2023/05/23 06:49:46;;;;;;;2.83;0.77;;;;;;;24.30;94.38;100990.06;7399329;19;20014;-57
2023/05/23 06:52:12;;;;;;;0.38;0.20;;;;;;;25.84;79.58;100977.56;7395378;19;20697;-60
2023/05/23 06:54:38;;;;;;;13.55;0.98;;;;;;;20.84;96.41;100981.84;7400293;19;20015;-57
2023/05/23 06:57:04;;;;;;;0.80;0.20;;;;;;;19.08;100.00;100977.59;7395917;19;20010;-57
2023/05/23 06:59:31;;;;;;;2.92;0.77;;;;;;;18.17;100.00;100985.25;7393998;19;20028;-58
2023/05/23 07:01:57;;;;;;;1.27;0.20;;;;;;;18.03;100.00;100986.19;7397652;19;20014;-58
2023/05/23 07:04:24;;;;;;;2.50;0.77;;;;;;;21.10;100.00;100982.31;7395156;19;20078;-57
2023/05/23 07:06:51;;;;;;;3.05;1.58;;;;;;;24.14;95.51;100974.81;7398951;19;20021;-57
2023/05/23 07:09:17;;;;;;;4.07;0.98;;;;;;;29.92;60.58;100956.28;7395509;19;20025;-57
2023/05/23 07:11:43;;;;;;;3.47;0.28;;;;;;;30.96;52.90;100963.03;7396271;19;20048;-57
2023/05/23 07:14:10;;;;;;;7.53;1.30;;;;;;;31.17;50.02;100967.00;7400228;19;20025;-58
2023/05/23 07:16:40;;;;;;;2.90;0.43;;;;;;;31.09;49.35;100972.09;7398560;19;20775;-57
2023/05/23 07:19:07;;;;;;;0.65;0.47;;;;;;;31.92;46.77;100979.59;7392355;19;20407;-58
2023/05/23 07:21:39;;;;;;;6.15;0.73;;;;;;;32.06;45.13;100988.66;7395449;19;20014;-57
2023/05/23 07:24:06;;;;;;;4.53;1.13;;;;;;;31.14;47.02;100979.72;7394906;19;20017;-57
2023/05/23 07:26:33;;;;;;;1.42;0.30;;;;;;;31.60;46.15;100984.91;7394240;19;20014;-62
2023/05/23 07:28:59;;;;;;;1.40;0.40;;;;;;;32.08;44.74;100986.69;7398923;19;20090;-62
2023/05/23 07:31:26;;;;;;;2.67;1.15;;;;;;;31.95;44.92;100984.22;7393048;19;20486;-62
2023/05/23 07:33:55;;;;;;;0.40;0.30;;;;;;;29.55;46.26;100997.44;7394932;19;20014;-62
2023/05/23 07:36:28;;;;;;;1.83;0.52;;;;;;;21.58;93.04;101006.53;7395204;19;20026;-62
2023/05/23 07:38:55;;;;;;;1.80;0.50;;;;;;;21.24;98.27;101008.78;7392870;19;20077;-62
2023/05/23 07:41:21;;;;;;;0.80;0.43;;;;;;;22.15;97.78;101009.28;7398310;19;20074;-62
2023/05/23 07:43:47;;;;;;;4.70;0.57;;;;;;;23.66;95.65;101015.63;7399137;19;20018;-62
2023/05/23 07:46:14;;;;;;;2.63;0.90;;;;;;;24.63;75.56;101015.09;7393699;19;20011;-62
2023/05/23 07:48:40;;;;;;;5.22;0.98;;;;;;;30.33;55.62;101014.41;7396004;19;20010;-62
2023/05/23 07:51:06;;;;;;;6.65;1.42;;;;;;;30.67;51.45;101023.91;7393926;19;20014;-63
2023/05/23 07:53:33;;;;;;;1.52;0.43;;;;;;;31.23;48.32;101022.19;7396159;19;20010;-63
2023/05/23 07:56:02;;;;;;;0.25;0.25;;;;;;;31.81;46.49;101011.88;7394664;19;20018;-63
2023/05/23 07:58:33;;;;;;;3.08;0.57;;;;;;;32.34;44.59;101011.06;7391171;19;20045;-63
2023/05/23 08:00:59;;;;;;;11.18;2.03;;;;;;;31.75;45.34;101019.28;7393804;19;20011;-62
2023/05/23 08:03:43;;;;;;;4.35;0.30;;;;;;;30.71;47.58;101017.72;7394150;19;20019;-62
2023/05/23 08:06:17;;;;;;;2.40;0.45;;;;;;;31.54;44.93;101022.59;7390382;19;20017;-63
2023/05/23 08:08:43;;;;;;;3.00;1.30;;;;;;;31.61;45.24;101018.09;7393978;19;20485;-62
2023/05/23 08:11:09;;;;;;;2.05;0.98;;;;;;;31.65;43.80;101022.06;7394772;19;20022;-62
2023/05/23 08:13:41;;;;;;;1.63;0.30;;;;;;;29.85;45.02;101028.88;7397362;19;20010;-63
2023/05/23 08:16:30;;;;;;;1.23;0.55;;;;;;;31.69;43.13;101015.88;7394769;19;20024;-63
2023/05/23 08:18:56;;;;;;;4.85;1.02;;;;;;;32.20;42.88;101015.75;7392248;19;20013;-63
2023/05/23 08:21:23;;;;;;;7.57;1.25;;;;;;;32.52;41.69;101017.53;7393946;19;20018;-62
2023/05/23 08:23:49;;;;;;;4.65;1.13;;;;;;;32.32;41.43;101008.03;7395247;19;20015;-62
2023/05/23 08:26:15;;;;;;;8.60;0.95;;;;;;;32.63;41.58;101003.31;7395001;19;20026;-62
2023/05/23 08:28:42;;;;;;;0.63;0.20;;;;;;;32.34;41.37;101008.19;7394133;19;20026;-62
2023/05/23 08:31:08;;;;;;;6.80;0.70;;;;;;;32.80;40.94;101013.97;7393734;19;20409;-62
2023/05/23 08:33:34;;;;;;;0.20;0.20;;;;;;;33.19;39.99;101006.13;7393223;19;20018;-63
2023/05/23 08:36:01;;;;;;;5.60;1.17;;;;;;;32.30;40.77;101010.75;7392939;19;20360;-63
2023/05/23 08:38:27;;;;;;;0.85;0.50;;;;;;;32.84;39.63;101017.91;7392611;19;20015;-63
2023/05/23 08:41:21;;;;;;;4.57;0.52;;;;;;;32.96;38.96;101011.56;7394057;19;20360;-62
2023/05/23 08:43:49;;;;;;;4.68;0.65;;;;;;;33.53;38.03;101012.34;7397330;19;20394;-63
2023/05/23 08:46:22;;;;;;;6.80;0.47;;;;;;;33.54;37.98;101013.88;7391813;19;20037;-62
2023/05/23 08:48:53;;;;;;;5.25;1.10;;;;;;;33.56;38.02;101011.16;7394730;19;20019;-63
2023/05/23 08:51:22;;;;;;;4.00;0.70;;;;;;;34.13;37.72;101010.22;7395010;19;20090;-62
2023/05/23 08:53:49;;;;;;;2.50;0.68;;;;;;;34.83;36.94;101010.78;7392859;19;20455;-62
2023/05/23 08:56:15;;;;;;;0.70;0.65;;;;;;;35.00;35.96;101008.41;7393964;19;20010;-62
2023/05/23 08:58:46;;;;;;;1.70;0.75;;;;;;;35.18;35.53;101002.31;7391953;19;20030;-63
2023/05/23 09:01:13;;;;;;;2.47;0.65;;;;;;;35.26;35.74;101006.50;7392405;19;20018;-63
2023/05/23 09:03:43;;;;;;;4.90;0.52;;;;;;;35.51;34.66;101020.50;7391681;19;20018;-62
2023/05/23 09:06:20;;;;;;;0.45;0.45;;;;;;;35.74;34.40;101009.75;7392060;19;20352;-62
2023/05/23 09:08:47;;;;;;;0.52;0.50;;;;;;;35.99;33.34;101017.13;7393069;19;20523;-62
2023/05/23 09:11:15;;;;;;;6.20;1.50;;;;;;;36.36;32.58;101009.34;7391689;19;20077;-63
2023/05/23 09:13:44;;;;;;;7.72;1.30;;;;;;;36.57;32.49;101006.31;7394761;19;20019;-63
2023/05/23 09:16:16;;;;;;;8.43;0.75;;;;;;;36.39;31.82;101005.16;7392527;19;20021;-63
2023/05/23 09:19:10;;;;;;;8.98;1.38;;;;;;;36.20;31.51;101006.19;7393003;19;20011;-63
2023/05/23 09:21:36;;;;;;;2.45;1.33;;;;;;;36.10;31.86;101002.66;7391916;19;20491;-63
2023/05/23 09:24:12;;;;;;;0.98;0.60;;;;;;;36.20;31.80;101003.28;7392299;19;20414;-62
2023/05/23 09:26:38;;;;;;;5.47;0.40;;;;;;;36.41;31.30;100999.47;7392131;19;20103;-62
2023/05/23 09:29:06;;;;;;;2.42;0.75;;;;;;;36.34;30.15;101000.50;7393534;19;20019;-62
2023/05/23 09:31:33;;;;;;;2.03;0.68;;;;;;;36.52;30.26;100992.94;7394208;19;20017;-62
2023/05/23 09:33:59;;;;;;;3.95;0.82;;;;;;;36.66;30.80;101004.66;7391727;19;20074;-63
2023/05/23 09:36:29;;;;;;;1.48;0.60;;;;;;;36.25;30.29;100996.34;7391307;19;20025;-62
2023/05/23 09:38:55;;;;;;;4.53;1.15;;;;;;;36.08;31.21;100996.72;7391424;19;20007;-63
2023/05/23 09:41:22;;;;;;;4.63;1.52;;;;;;;36.16;30.02;101002.25;7394724;19;20028;-63
2023/05/23 09:43:52;;;;;;;1.33;0.65;;;;;;;36.06;29.17;101005.25;7394866;19;20079;-62
2023/05/23 09:46:20;;;;;;;3.65;1.15;;;;;;;36.28;29.21;101000.09;7391583;19;20034;-63
2023/05/23 09:48:47;;;;;;;0.47;0.38;;;;;;;36.52;28.84;100989.28;7393540;19;20031;-62
2023/05/23 09:51:14;;;;;;;1.65;0.30;;;;;;;36.56;28.33;101004.06;7392589;19;20010;-63
2023/05/23 09:53:40;;;;;;;1.98;0.90;;;;;;;36.60;28.69;100993.44;7390304;19;20017;-62
2023/05/23 09:56:10;;;;;;;3.75;0.80;;;;;;;36.59;28.54;100997.72;7399796;19;20051;-62
2023/05/23 09:58:37;;;;;;;1.38;0.75;;;;;;;36.43;28.42;100996.72;7399845;19;20074;-62
2023/05/23 10:01:08;;;;;;;1.90;0.93;;;;;;;36.10;29.01;100987.38;7399928;19;20031;-63
2023/05/23 10:03:45;;;;;;;8.80;1.15;;;;;;;36.14;29.23;100987.63;7400499;19;20018;-62
2023/05/23 10:06:41;;;;;;;8.65;1.20;;;;;;;35.93;29.67;100988.44;7400400;19;20014;-62
2023/05/23 10:09:14;;;;;;;4.70;1.05;;;;;;;35.92;29.54;100983.28;7401957;19;20010;-62
2023/05/23 10:11:40;;;;;;;7.25;1.52;;;;;;;36.14;29.33;100981.81;7398708;19;20011;-63
2023/05/23 10:14:08;;;;;;;3.92;1.20;;;;;;;36.31;29.81;100987.25;7403728;19;20010;-63
2023/05/23 10:16:38;;;;;;;7.72;1.10;;;;;;;36.11;29.87;100989.63;7399413;19;20018;-63
2023/05/23 10:19:26;;;;;;;3.17;1.02;;;;;;;36.18;29.67;100982.06;7399667;19;20007;-61
2023/05/23 10:22:02;;;;;;;9.43;1.77;;;;;;;36.10;28.94;100969.97;7398654;19;20074;-61
2023/05/23 10:24:28;;;;;;;2.95;1.15;;;;;;;35.84;30.01;100974.09;7399741;19;20335;-62
2023/05/23 10:26:55;;;;;;;4.50;1.52;;;;;;;36.31;30.09;100967.69;7399711;19;20010;-62
2023/05/23 10:29:22;;;;;;;4.15;1.08;;;;;;;36.35;30.46;100970.09;7399607;19;20163;-62
2023/05/23 10:31:50;;;;;;;4.10;1.15;;;;;;;36.76;30.06;100971.19;7398268;19;20066;-62
2023/05/23 10:34:30;;;;;;;3.40;1.30;;;;;;;36.69;29.33;100966.38;7398516;19;20079;-62
2023/05/23 10:37:06;;;;;;;5.82;1.75;;;;;;;36.62;29.94;100961.63;7397453;19;20015;-62
2023/05/23 10:40:06;;;;;;;5.07;1.17;;;;;;;36.54;30.01;100969.81;7399479;19;20021;-62
2023/05/23 10:42:54;;;;;;;4.40;1.20;;;;;;;37.16;29.98;100961.97;7399552;19;20518;-62
2023/05/23 10:45:23;;;;;;;3.70;1.38;;;;;;;37.19;29.51;100962.84;7398081;19;21036;-62
2023/05/23 10:47:51;;;;;;;2.60;1.52;;;;;;;37.42;28.85;100964.91;7397654;19;20030;-62
2023/05/23 10:50:38;;;;;;;3.80;1.52;;;;;;;37.17;29.27;100969.28;7397589;19;20014;-62
2023/05/23 10:53:05;;;;;;;5.18;1.80;;;;;;;37.73;29.23;100965.22;7397676;19;20011;-62
2023/05/23 10:55:35;;;;;;;2.40;0.60;;;;;;;37.87;28.83;100966.03;7398738;19;20074;-63
2023/05/23 10:58:32;;;;;;;4.18;1.25;;;;;;;37.68;28.71;100972.22;7396427;19;20455;-62
2023/05/23 11:01:08;;;;;;;4.88;2.17;;;;;;;37.29;29.00;100962.69;7395041;19;20370;-63
2023/05/23 11:04:03;;;;;;;3.95;1.63;;;;;;;37.43;28.97;100961.34;7393304;19;20477;-61
2023/05/23 11:06:45;;;;;;;5.97;2.20;;;;;;;37.68;29.12;100954.75;7391306;19;20015;-61
2023/05/23 11:09:20;;;;;;;5.35;1.08;;;;;;;37.73;28.93;100947.75;7396830;19;20066;-62
2023/05/23 11:12:03;;;;;;;6.20;1.92;;;;;;;37.83;29.02;100951.28;7393660;19;20007;-62
2023/05/23 11:14:33;;;;;;;5.38;1.70;;;;;;;37.83;29.22;100952.03;7395694;19;20417;-62
2023/05/23 11:17:15;;;;;;;7.45;2.08;;;;;;;37.49;29.36;100946.41;7393502;19;20019;-61
2023/05/23 11:20:08;;;;;;;4.80;2.03;;;;;;;37.78;28.08;100953.16;7396959;19;20042;-62
2023/05/23 11:22:36;;;;;;;9.05;1.98;;;;;;;37.49;28.41;100941.34;7396162;19;20023;-62
2023/05/23 11:25:30;;;;;;;4.18;1.52;;;;;;;37.48;29.50;100945.66;7395713;19;20010;-61
2023/05/23 11:28:03;;;;;;;13.52;2.00;;;;;;;37.33;28.64;100945.47;7396638;19;20268;-62
2023/05/23 11:31:14;;;;;;;11.73;2.22;;;;;;;37.77;29.54;100953.81;7394008;19;20736;-62
2023/05/23 11:33:41;;;;;;;5.00;2.10;;;;;;;38.18;29.21;100954.66;7393060;19;20139;-62